createdAt,value
2022-12-29T00:02:19.581Z,6.81
2022-12-29T00:04:54.410Z,6.79
2022-12-29T00:07:26.695Z,6.82
2022-12-29T00:09:58.852Z,6.82
2022-12-29T00:12:50.650Z,6.80
2022-12-29T00:15:41.091Z,6.79
2022-12-29T00:18:15.238Z,6.77
2022-12-29T00:21:05.941Z,6.81
2022-12-29T00:23:57.687Z,6.78
2022-12-29T00:26:48.011Z,6.77
2022-12-29T00:29:38.400Z,6.75
2022-12-29T00:32:31.336Z,6.74
2022-12-29T00:35:12.095Z,6.76
2022-12-29T00:38:07.294Z,6.80
2022-12-29T00:40:58.011Z,6.80
2022-12-29T00:43:48.424Z,6.79
2022-12-29T00:46:21.503Z,6.84
2022-12-29T00:49:13.090Z,6.79
2022-12-29T00:51:46.890Z,6.80
2022-12-29T00:54:19.547Z,6.87
2022-12-29T00:56:56.013Z,6.84
2022-12-29T00:59:28.195Z,6.86
2022-12-29T01:02:02.331Z,6.88
2022-12-29T01:04:34.890Z,6.86
2022-12-29T01:07:06.931Z,6.91
2022-12-29T01:09:57.387Z,6.88
2022-12-29T01:12:46.169Z,6.92
2022-12-29T01:15:18.319Z,6.86
2022-12-29T01:17:50.182Z,6.92
2022-12-29T01:20:21.994Z,6.90
2022-12-29T01:22:53.800Z,6.89
2022-12-29T01:25:25.731Z,6.89
2022-12-29T01:27:57.461Z,6.88
2022-12-29T01:30:29.627Z,6.87
2022-12-29T01:33:04.431Z,6.87
2022-12-29T01:35:36.182Z,6.92
2022-12-29T01:38:09.069Z,6.90
2022-12-29T01:40:45.643Z,6.92
2022-12-29T01:43:17.380Z,6.93
2022-12-29T01:45:52.280Z,6.94
2022-12-29T01:48:25.404Z,6.91
2022-12-29T01:50:57.333Z,6.93
2022-12-29T01:53:34.436Z,6.93
2022-12-29T01:56:12.018Z,6.96
2022-12-29T01:58:47.917Z,7.01
2022-12-29T02:01:21.659Z,6.98
2022-12-29T02:03:53.457Z,6.99
2022-12-29T02:06:30.688Z,7.03
2022-12-29T02:09:02.532Z,7.05
2022-12-29T02:11:36.412Z,7.11
2022-12-29T02:14:13.272Z,7.12
2022-12-29T02:17:19.369Z,7.12
2022-12-29T02:20:18.404Z,7.12
2022-12-29T02:23:19.687Z,7.14
2022-12-29T02:26:20.684Z,7.16
2022-12-29T02:29:30.420Z,7.17
2022-12-29T02:32:04.309Z,7.06
2022-12-29T02:34:58.711Z,7.07
2022-12-29T02:37:59.695Z,7.07
2022-12-29T02:40:40.737Z,7.07
2022-12-29T02:43:18.523Z,7.08
2022-12-29T02:46:04.067Z,7.09
2022-12-29T02:49:02.396Z,7.07
2022-12-29T02:51:43.824Z,7.08
2022-12-29T02:54:40.453Z,7.11
2022-12-29T02:57:22.251Z,7.08
2022-12-29T03:00:08.762Z,7.08
2022-12-29T03:03:08.463Z,7.14
2022-12-29T03:06:00.712Z,7.15
2022-12-29T03:08:36.700Z,7.19
2022-12-29T03:11:32.269Z,7.11
2022-12-29T03:14:33.785Z,7.18
2022-12-29T03:17:16.005Z,7.18
2022-12-29T03:19:52.303Z,7.21
2022-12-29T03:22:33.482Z,7.25
2022-12-29T03:25:27.034Z,7.28
2022-12-29T03:28:12.388Z,7.32
2022-12-29T03:30:48.779Z,7.34
2022-12-29T03:33:26.523Z,7.37
2022-12-29T03:36:05.190Z,7.40
2022-12-29T03:38:46.044Z,7.42
2022-12-29T03:41:21.822Z,7.40
2022-12-29T03:43:53.591Z,7.42
2022-12-29T03:46:25.613Z,7.51
2022-12-29T03:48:57.537Z,7.52
2022-12-29T03:51:29.403Z,7.55
2022-12-29T03:54:02.352Z,7.55
2022-12-29T03:56:34.369Z,7.58
2022-12-29T03:59:07.262Z,7.64
2022-12-29T04:01:45.418Z,7.63
2022-12-29T04:04:18.628Z,7.66
2022-12-29T04:06:51.560Z,7.64
2022-12-29T04:09:28.273Z,7.68
2022-12-29T04:12:02.729Z,7.70
2022-12-29T04:14:34.647Z,7.71
2022-12-29T04:17:07.579Z,7.71
2022-12-29T04:19:40.137Z,7.72
2022-12-29T04:22:12.787Z,7.75
2022-12-29T04:24:46.305Z,7.76
2022-12-29T04:27:18.198Z,7.75
2022-12-29T04:30:26.017Z,7.75
2022-12-29T04:33:23.515Z,7.76
2022-12-29T04:35:56.828Z,7.81
2022-12-29T04:38:29.611Z,7.83
2022-12-29T04:41:06.103Z,7.93
2022-12-29T04:43:39.537Z,8.00
2022-12-29T04:46:34.716Z,8.02
2022-12-29T04:49:14.029Z,8.08
2022-12-29T04:52:21.337Z,8.09
2022-12-29T04:54:53.276Z,8.14
2022-12-29T04:57:26.679Z,8.22
2022-12-29T05:00:02.374Z,8.27
2022-12-29T05:02:34.352Z,8.32
2022-12-29T05:05:07.655Z,8.35
2022-12-29T05:07:43.767Z,8.35
2022-12-29T05:10:15.630Z,8.36
2022-12-29T05:12:48.539Z,8.36
2022-12-29T05:15:20.925Z,8.35
2022-12-29T05:17:56.006Z,8.37
2022-12-29T05:20:29.129Z,8.39
2022-12-29T05:23:02.522Z,8.43
2022-12-29T05:25:34.662Z,8.41
2022-12-29T05:28:29.291Z,8.44
2022-12-29T05:31:10.102Z,8.44
2022-12-29T05:33:42.298Z,8.43
2022-12-29T05:36:14.442Z,8.41
2022-12-29T05:38:50.975Z,8.44
2022-12-29T05:41:23.528Z,8.46
2022-12-29T05:44:01.657Z,8.47
2022-12-29T05:46:36.189Z,8.51
2022-12-29T05:49:13.817Z,8.48
2022-12-29T05:52:11.878Z,8.43
2022-12-29T05:54:44.166Z,8.44
2022-12-29T05:57:18.840Z,8.38
2022-12-29T05:59:55.612Z,8.41
2022-12-29T06:02:27.589Z,8.44
2022-12-29T06:04:59.597Z,8.45
2022-12-29T06:07:31.432Z,8.47
2022-12-29T06:10:04.982Z,8.47
2022-12-29T06:12:40.549Z,8.58
2022-12-29T06:15:12.386Z,8.60
2022-12-29T06:17:46.098Z,8.63
2022-12-29T06:20:18.394Z,8.63
2022-12-29T06:22:53.642Z,8.65
2022-12-29T06:25:25.762Z,8.65
2022-12-29T06:27:59.028Z,8.72
2022-12-29T06:30:30.885Z,8.80
2022-12-29T06:33:03.625Z,8.78
2022-12-29T06:35:35.447Z,8.79
2022-12-29T06:38:09.167Z,8.82
2022-12-29T06:40:43.414Z,8.78
2022-12-29T06:43:41.244Z,8.74
2022-12-29T06:46:31.820Z,8.74
2022-12-29T06:49:04.016Z,8.71
2022-12-29T06:51:35.793Z,8.72
2022-12-29T06:54:07.743Z,8.74
2022-12-29T06:56:39.695Z,8.75
2022-12-29T06:59:11.918Z,8.73
2022-12-29T07:01:43.715Z,8.69
2022-12-29T07:04:18.075Z,8.76
2022-12-29T07:06:51.203Z,8.73
2022-12-29T07:09:22.943Z,8.76
2022-12-29T07:11:55.105Z,8.78
2022-12-29T07:14:26.840Z,8.76
2022-12-29T07:16:59.012Z,8.72
2022-12-29T07:19:30.745Z,8.68
2022-12-29T07:22:05.367Z,8.72
2022-12-29T07:24:37.266Z,8.70
2022-12-29T07:27:09.026Z,8.69
2022-12-29T07:29:40.957Z,8.70
2022-12-29T07:32:12.931Z,8.74
2022-12-29T07:34:48.298Z,8.85
2022-12-29T07:37:20.237Z,8.92
2022-12-29T07:39:51.991Z,8.89
2022-12-29T07:42:24.106Z,8.87
2022-12-29T07:44:57.554Z,8.87
2022-12-29T07:47:38.843Z,8.90
2022-12-29T07:50:10.619Z,8.90
2022-12-29T07:52:43.488Z,8.94
2022-12-29T07:55:16.599Z,8.96
2022-12-29T07:57:53.772Z,8.98
2022-12-29T08:00:25.663Z,8.99
2022-12-29T08:02:57.838Z,8.97
2022-12-29T08:05:29.525Z,8.97
2022-12-29T08:08:01.553Z,8.97
2022-12-29T08:10:33.269Z,9.02
2022-12-29T08:13:05.066Z,9.04
2022-12-29T08:15:38.548Z,9.13
2022-12-29T08:18:12.307Z,9.22
2022-12-29T08:20:44.196Z,9.29
2022-12-29T08:23:15.999Z,9.35
2022-12-29T08:25:47.806Z,9.38
2022-12-29T08:28:19.649Z,9.41
2022-12-29T08:30:51.375Z,9.43
2022-12-29T08:33:23.159Z,9.46
2022-12-29T08:36:07.717Z,9.50
2022-12-29T08:38:42.138Z,9.51
2022-12-29T08:41:13.870Z,9.56
2022-12-29T08:43:50.025Z,9.62
2022-12-29T08:46:22.038Z,9.68
2022-12-29T08:48:54.729Z,9.72
2022-12-29T08:51:26.524Z,9.78
2022-12-29T08:53:58.315Z,9.87
2022-12-29T08:56:31.253Z,9.95
2022-12-29T08:59:05.162Z,10.07
2022-12-29T09:01:37.597Z,10.21
2022-12-29T09:04:15.458Z,10.35
2022-12-29T09:06:50.312Z,10.45
2022-12-29T09:09:22.424Z,10.50
2022-12-29T09:11:54.117Z,10.66
2022-12-29T09:14:25.933Z,10.78
2022-12-29T09:17:16.189Z,10.87
2022-12-29T09:19:47.949Z,10.93
2022-12-29T09:22:19.870Z,10.98
2022-12-29T09:24:51.671Z,11.01
2022-12-29T09:27:23.410Z,11.04
2022-12-29T09:29:55.909Z,11.04
2022-12-29T09:32:33.468Z,11.06
2022-12-29T09:35:05.834Z,11.11
2022-12-29T09:37:37.587Z,11.16
2022-12-29T09:40:33.495Z,11.16
2022-12-29T09:43:39.325Z,11.19
2022-12-29T09:46:14.044Z,11.15
2022-12-29T09:48:52.649Z,11.10
2022-12-29T09:51:26.590Z,11.05
2022-12-29T09:54:03.419Z,11.05
2022-12-29T09:56:35.192Z,11.09
2022-12-29T09:59:18.313Z,11.19
2022-12-29T10:02:02.180Z,11.25
2022-12-29T10:04:34.094Z,11.40
2022-12-29T10:07:29.771Z,11.41
2022-12-29T10:10:16.430Z,11.57
2022-12-29T10:13:23.184Z,11.79
2022-12-29T10:16:01.003Z,12.06
2022-12-29T10:18:52.941Z,12.51
2022-12-29T10:21:49.796Z,12.90
2022-12-29T10:24:22.960Z,13.17
2022-12-29T10:26:59.429Z,13.26
2022-12-29T10:29:37.434Z,13.53
2022-12-29T10:32:42.666Z,13.76
2022-12-29T10:35:20.789Z,13.96
2022-12-29T10:38:02.696Z,13.93
2022-12-29T10:40:41.597Z,13.84
2022-12-29T10:43:42.438Z,13.73
2022-12-29T10:46:34.368Z,13.80
2022-12-29T10:49:21.502Z,13.81
2022-12-29T10:51:57.961Z,13.90
2022-12-29T10:54:50.025Z,13.98
2022-12-29T10:57:32.261Z,14.06
2022-12-29T11:00:17.571Z,14.16
2022-12-29T11:03:20.009Z,14.34
2022-12-29T11:06:04.873Z,14.57
2022-12-29T11:08:39.907Z,14.72
2022-12-29T11:11:11.671Z,14.85
2022-12-29T11:14:03.351Z,14.85
2022-12-29T11:16:39.396Z,14.99
2022-12-29T11:19:26.025Z,14.92
2022-12-29T11:22:15.967Z,14.84
2022-12-29T11:24:49.825Z,14.80
2022-12-29T11:27:24.610Z,15.00
2022-12-29T11:29:56.128Z,15.27
2022-12-29T11:32:30.900Z,15.42
2022-12-29T11:35:05.265Z,15.61
2022-12-29T11:37:41.168Z,15.74
2022-12-29T11:40:21.255Z,15.83
2022-12-29T11:42:56.224Z,15.91
2022-12-29T11:45:33.632Z,15.86
2022-12-29T11:48:23.791Z,15.77
2022-12-29T11:51:00.251Z,15.66
2022-12-29T11:53:57.291Z,15.63
2022-12-29T11:56:42.206Z,15.49
2022-12-29T11:59:38.872Z,15.37
2022-12-29T12:02:43.662Z,15.32
2022-12-29T12:05:51.338Z,15.22
2022-12-29T12:09:20.152Z,15.29
2022-12-29T12:11:55.626Z,15.22
2022-12-29T12:14:33.048Z,15.14
2022-12-29T12:17:25.837Z,14.84
2022-12-29T12:20:11.592Z,14.55
2022-12-29T12:22:52.303Z,14.37
2022-12-29T12:25:43.842Z,14.34
2022-12-29T12:28:28.430Z,14.25
2022-12-29T12:31:20.164Z,14.11
2022-12-29T12:34:00.177Z,14.01
2022-12-29T12:37:08.598Z,13.98
2022-12-29T12:40:05.445Z,13.90
2022-12-29T12:43:24.311Z,13.87
2022-12-29T12:46:19.012Z,13.80
2022-12-29T12:49:55.999Z,13.68
2022-12-29T12:52:45.646Z,13.66
2022-12-29T12:55:37.540Z,13.63
2022-12-29T12:58:30.731Z,13.54
2022-12-29T13:01:24.273Z,13.49
2022-12-29T13:04:22.099Z,13.48
2022-12-29T13:07:16.726Z,13.44
2022-12-29T13:10:17.831Z,13.40
2022-12-29T13:13:15.896Z,13.39
2022-12-29T13:15:53.824Z,13.37
2022-12-29T13:18:57.519Z,13.33
2022-12-29T13:21:38.831Z,13.39
2022-12-29T13:24:25.970Z,13.36
2022-12-29T13:27:27.835Z,13.36
2022-12-29T13:30:16.677Z,13.36
2022-12-29T13:33:21.743Z,13.36
2022-12-29T13:36:18.307Z,13.39
2022-12-29T13:38:57.679Z,13.41
2022-12-29T13:41:36.904Z,13.34
2022-12-29T13:44:15.928Z,13.33
2022-12-29T13:46:48.667Z,13.35
2022-12-29T13:49:22.851Z,13.34
2022-12-29T13:52:05.090Z,13.35
2022-12-29T13:55:14.075Z,13.35
2022-12-29T13:58:15.014Z,13.37
2022-12-29T14:01:12.820Z,13.45
2022-12-29T14:03:56.361Z,13.45
2022-12-29T14:06:33.868Z,13.44
2022-12-29T14:09:28.070Z,13.45
2022-12-29T14:12:43.339Z,13.45
2022-12-29T14:15:23.856Z,13.41
2022-12-29T14:18:23.083Z,13.39
2022-12-29T14:20:59.755Z,13.37
2022-12-29T14:23:41.235Z,13.37
2022-12-29T14:26:30.971Z,13.37
2022-12-29T14:29:39.611Z,13.35
2022-12-29T14:32:26.694Z,13.33
2022-12-29T14:35:19.198Z,13.30
2022-12-29T14:38:16.893Z,13.24
2022-12-29T14:40:50.139Z,13.23
2022-12-29T14:43:26.218Z,13.21
2022-12-29T14:46:07.707Z,13.19
2022-12-29T14:48:44.557Z,13.15
2022-12-29T14:51:32.352Z,13.11
2022-12-29T14:54:34.021Z,13.10
2022-12-29T14:57:09.324Z,13.08
2022-12-29T14:59:41.378Z,13.05
2022-12-29T15:02:23.380Z,13.00
2022-12-29T15:05:01.884Z,12.93
2022-12-29T15:07:35.590Z,12.89
2022-12-29T15:10:14.812Z,12.87
2022-12-29T15:12:54.910Z,12.81
2022-12-29T15:15:30.934Z,12.74
2022-12-29T15:18:23.583Z,12.69
2022-12-29T15:21:04.404Z,12.64
2022-12-29T15:23:37.882Z,12.64
2022-12-29T15:26:11.450Z,12.62
2022-12-29T15:28:47.625Z,12.59
2022-12-29T15:31:30.032Z,12.56
2022-12-29T15:34:11.438Z,12.52
2022-12-29T15:36:43.284Z,12.47
2022-12-29T15:39:31.877Z,12.43
2022-12-29T15:42:22.367Z,12.40
2022-12-29T15:45:03.211Z,12.39
2022-12-29T15:47:45.052Z,12.36
2022-12-29T15:50:25.043Z,12.34
2022-12-29T15:52:59.421Z,12.30
2022-12-29T15:55:36.997Z,12.26
2022-12-29T15:58:29.550Z,12.24
2022-12-29T16:01:02.860Z,12.21
2022-12-29T16:03:38.097Z,12.20
2022-12-29T16:06:31.482Z,12.18
2022-12-29T16:09:07.714Z,12.15
2022-12-29T16:11:44.993Z,12.10
2022-12-29T16:14:20.810Z,12.09
2022-12-29T16:16:52.724Z,12.03
2022-12-29T16:19:36.971Z,12.00
2022-12-29T16:22:18.490Z,11.94
2022-12-29T16:24:50.390Z,11.94
2022-12-29T16:27:38.368Z,11.90
2022-12-29T16:30:33.960Z,11.92
2022-12-29T16:33:06.898Z,11.91
2022-12-29T16:35:41.154Z,11.93
2022-12-29T16:38:23.672Z,11.99
2022-12-29T16:41:05.791Z,11.96
2022-12-29T16:43:43.413Z,11.98
2022-12-29T16:46:30.375Z,11.90
2022-12-29T16:49:02.228Z,11.93
2022-12-29T16:51:37.574Z,11.90
2022-12-29T16:54:22.578Z,11.88
2022-12-29T16:56:55.226Z,11.87
2022-12-29T16:59:33.345Z,11.85
2022-12-29T17:02:23.751Z,11.85
2022-12-29T17:04:55.925Z,11.86
2022-12-29T17:07:28.994Z,11.86
2022-12-29T17:10:01.143Z,11.80
2022-12-29T17:12:35.988Z,11.80
2022-12-29T17:15:29.844Z,11.77
2022-12-29T17:18:06.375Z,11.73
2022-12-29T17:20:42.293Z,11.71
2022-12-29T17:23:22.845Z,11.68
2022-12-29T17:25:58.183Z,11.62
2022-12-29T17:28:32.991Z,11.58
2022-12-29T17:31:06.952Z,11.56
2022-12-29T17:33:42.801Z,11.55
2022-12-29T17:36:14.636Z,11.54
2022-12-29T17:38:47.101Z,11.54
2022-12-29T17:41:18.815Z,11.49
2022-12-29T17:43:53.451Z,11.45
2022-12-29T17:46:25.154Z,11.45
2022-12-29T17:48:56.943Z,11.45
2022-12-29T17:51:28.899Z,11.43
2022-12-29T17:54:00.624Z,11.39
2022-12-29T17:56:32.323Z,11.35
2022-12-29T17:59:04.102Z,11.34
2022-12-29T18:01:38.985Z,11.32
2022-12-29T18:04:20.415Z,11.32
2022-12-29T18:06:52.146Z,11.28
2022-12-29T18:09:23.910Z,11.26
2022-12-29T18:11:55.622Z,11.25
2022-12-29T18:14:27.518Z,11.23
2022-12-29T18:17:01.902Z,11.21
2022-12-29T18:19:36.090Z,11.15
2022-12-29T18:22:09.194Z,11.13
2022-12-29T18:24:44.237Z,11.15
2022-12-29T18:27:17.648Z,11.11
2022-12-29T18:29:49.537Z,11.07
2022-12-29T18:32:21.449Z,11.02
2022-12-29T18:34:53.240Z,10.96
2022-12-29T18:37:24.985Z,10.94
2022-12-29T18:39:57.327Z,10.93
2022-12-29T18:42:29.306Z,10.92
2022-12-29T18:45:01.097Z,10.89
2022-12-29T18:47:32.817Z,10.87
2022-12-29T18:50:05.156Z,10.87
2022-12-29T18:52:36.957Z,10.84
2022-12-29T18:55:21.553Z,10.82
2022-12-29T18:57:53.310Z,10.81
2022-12-29T19:00:25.067Z,10.82
2022-12-29T19:02:56.977Z,10.81
2022-12-29T19:05:37.193Z,10.79
2022-12-29T19:08:10.401Z,10.77
2022-12-29T19:10:43.172Z,10.76
2022-12-29T19:13:18.170Z,10.77
2022-12-29T19:15:49.953Z,10.78
2022-12-29T19:21:15.294Z,10.76
2022-12-29T19:23:47.893Z,10.74
2022-12-29T19:26:34.686Z,10.72
2022-12-29T19:29:15.740Z,10.71
2022-12-29T19:31:47.621Z,10.76
2022-12-29T19:34:20.671Z,10.80
2022-12-29T19:36:52.445Z,10.79
2022-12-29T19:39:24.212Z,10.82
2022-12-29T19:41:59.071Z,10.82
2022-12-29T19:44:33.762Z,10.83
2022-12-29T19:47:05.600Z,10.85
2022-12-29T19:49:37.716Z,10.87
2022-12-29T19:52:11.457Z,10.87
2022-12-29T19:54:43.336Z,10.87
2022-12-29T19:57:15.092Z,10.90
2022-12-29T19:59:47.092Z,10.86
2022-12-29T20:02:23.346Z,10.85
2022-12-29T20:04:55.490Z,10.81
2022-12-29T20:07:27.882Z,10.83
2022-12-29T20:09:59.615Z,10.83
2022-12-29T20:12:31.407Z,10.84
2022-12-29T20:15:03.833Z,10.86
2022-12-29T20:18:10.627Z,10.90
2022-12-29T20:20:27.680Z,10.91
2022-12-29T20:22:59.488Z,10.88
2022-12-29T20:25:47.517Z,10.88
2022-12-29T20:28:19.520Z,10.87
2022-12-29T20:30:56.019Z,10.87
2022-12-29T20:33:29.016Z,10.88
2022-12-29T20:36:07.202Z,10.89
2022-12-29T20:38:39.188Z,10.90
2022-12-29T20:41:11.205Z,10.88
2022-12-29T20:43:43.363Z,10.84
2022-12-29T20:46:20.544Z,10.87
2022-12-29T20:48:56.497Z,10.84
2022-12-29T20:51:28.548Z,10.75
2022-12-29T20:54:00.339Z,10.64
2022-12-29T20:56:31.982Z,10.63
2022-12-29T21:01:56.363Z,10.61
2022-12-29T21:04:38.428Z,10.62
2022-12-29T21:07:21.214Z,10.60
2022-12-29T21:09:53.011Z,10.55
2022-12-29T21:12:24.836Z,10.49
2022-12-29T21:14:56.558Z,10.50
2022-12-29T21:17:28.222Z,10.50
2022-12-29T21:19:59.961Z,10.46
2022-12-29T21:22:31.647Z,10.42
2022-12-29T21:25:03.673Z,10.42
2022-12-29T21:27:35.428Z,10.40
2022-12-29T21:30:08.004Z,10.40
2022-12-29T21:32:40.792Z,10.39
2022-12-29T21:35:12.522Z,10.41
2022-12-29T21:37:44.199Z,10.42
2022-12-29T21:40:19.180Z,10.41
2022-12-29T21:42:52.201Z,10.42
2022-12-29T21:45:28.063Z,10.41
2022-12-29T21:48:24.119Z,10.43
2022-12-29T21:51:30.724Z,10.46
2022-12-29T21:54:21.264Z,10.49
2022-12-29T21:56:53.126Z,10.48
2022-12-29T21:59:43.408Z,10.46
2022-12-29T22:02:52.159Z,10.43
2022-12-29T22:05:42.815Z,10.45
2022-12-29T22:08:33.241Z,10.42
2022-12-29T22:11:27.634Z,10.41
2022-12-29T22:14:00.851Z,10.36
2022-12-29T22:16:32.582Z,10.36
2022-12-29T22:19:04.404Z,10.38
2022-12-29T22:21:36.266Z,10.39
2022-12-29T22:24:08.930Z,10.41
2022-12-29T22:26:40.648Z,10.40
2022-12-29T22:29:12.468Z,10.38
2022-12-29T22:31:44.176Z,10.32
2022-12-29T22:34:16.092Z,10.32
2022-12-29T22:36:47.808Z,10.27
2022-12-29T22:39:19.572Z,10.29
2022-12-29T22:41:51.700Z,10.26
2022-12-29T22:44:23.406Z,10.26
2022-12-29T22:46:55.175Z,10.25
2022-12-29T22:49:29.035Z,10.26
2022-12-29T22:52:00.881Z,10.25
2022-12-29T22:54:32.802Z,10.25
2022-12-29T22:57:06.732Z,10.26
2022-12-29T22:59:39.974Z,10.23
2022-12-29T23:02:11.760Z,10.25
2022-12-29T23:07:35.809Z,10.31
2022-12-29T23:10:08.002Z,10.26
2022-12-29T23:12:42.840Z,10.27
2022-12-29T23:15:14.575Z,10.29
2022-12-29T23:17:46.367Z,10.29
2022-12-29T23:20:18.736Z,10.29
2022-12-29T23:22:50.657Z,10.25
2022-12-29T23:25:22.398Z,10.27
2022-12-29T23:27:54.665Z,10.29
2022-12-29T23:30:26.428Z,10.34
2022-12-29T23:32:58.247Z,10.35
2022-12-29T23:35:30.043Z,10.41
2022-12-29T23:38:01.799Z,10.47
2022-12-29T23:40:33.559Z,10.53
2022-12-29T23:43:05.444Z,10.54
2022-12-29T23:45:38.966Z,10.51
2022-12-29T23:48:13.341Z,10.49
2022-12-29T23:50:45.129Z,10.44
2022-12-29T23:53:16.838Z,10.43
2022-12-29T23:55:54.127Z,10.40
2022-12-29T23:58:25.948Z,10.42
